createdAt,value
2023-05-08T00:03:57.955Z,100773.19
2023-05-08T00:09:00.263Z,100780.66
2023-05-08T00:14:02.603Z,100780.53
2023-05-08T00:19:04.993Z,100742.69
2023-05-08T00:24:07.562Z,100803.09
2023-05-08T00:29:09.853Z,100772.56
2023-05-08T00:34:12.080Z,100752.03
2023-05-08T00:39:14.327Z,100791.03
2023-05-08T00:44:17.177Z,100788.81
2023-05-08T00:49:19.820Z,100781.34
2023-05-08T00:54:22.737Z,100763.63
2023-05-08T00:59:26.660Z,100798.50
2023-05-08T01:04:32.323Z,100795.06
2023-05-08T01:09:34.885Z,100787.34
2023-05-08T01:14:50.661Z,100766.28
2023-05-08T01:20:30.174Z,100805.19
2023-05-08T01:26:09.192Z,100802.91
2023-05-08T01:31:23.276Z,100793.13
2023-05-08T01:36:38.120Z,100804.13
2023-05-08T01:41:47.069Z,100799.50
2023-05-08T01:46:51.500Z,100752.31
2023-05-08T01:52:43.659Z,100814.91
2023-05-08T01:57:49.718Z,100803.63
2023-05-08T02:02:55.300Z,100810.38
2023-05-08T02:07:59.215Z,100785.75
2023-05-08T02:13:03.136Z,100759.59
2023-05-08T02:18:07.629Z,100802.06
2023-05-08T02:23:10.777Z,100776.66
2023-05-08T02:28:13.301Z,100803.53
2023-05-08T02:33:17.229Z,100794.09
2023-05-08T02:38:22.140Z,100755.44
2023-05-08T02:43:24.894Z,100784.56
2023-05-08T02:48:34.873Z,100773.13
2023-05-08T02:53:46.994Z,100766.00
2023-05-08T02:59:19.445Z,100787.19
2023-05-08T03:04:32.705Z,100801.13
2023-05-08T03:09:42.364Z,100814.25
2023-05-08T03:15:13.700Z,100821.47
2023-05-08T03:20:20.164Z,100830.59
2023-05-08T03:25:23.868Z,100791.66
2023-05-08T03:30:28.043Z,100825.25
2023-05-08T03:35:32.155Z,100822.34
2023-05-08T03:40:37.347Z,100831.84
2023-05-08T03:45:41.943Z,100807.84
2023-05-08T03:50:45.351Z,100823.94
2023-05-08T03:55:47.712Z,100827.44
2023-05-08T04:00:49.899Z,100836.63
2023-05-08T04:06:48.534Z,100834.38
2023-05-08T04:12:15.471Z,100836.16
2023-05-08T04:17:41.939Z,100836.72
2023-05-08T04:22:47.186Z,100840.03
2023-05-08T04:27:54.714Z,100825.03
2023-05-08T04:32:58.519Z,100852.38
2023-05-08T04:38:01.311Z,100834.47
2023-05-08T04:43:03.778Z,100806.69
2023-05-08T04:48:06.779Z,100802.56
2023-05-08T04:53:09.700Z,100818.41
2023-05-08T04:58:11.912Z,100847.22
2023-05-08T05:03:14.634Z,100830.41
2023-05-08T05:08:16.965Z,100826.69
2023-05-08T05:13:20.431Z,100859.34
2023-05-08T05:18:22.818Z,100835.41
2023-05-08T05:23:25.049Z,100831.00
2023-05-08T05:28:27.408Z,100846.81
2023-05-08T05:33:29.856Z,100847.69
2023-05-08T05:38:32.202Z,100840.03
2023-05-08T05:43:34.405Z,100809.34
2023-05-08T05:48:36.718Z,100845.38
2023-05-08T05:53:38.944Z,100852.34
2023-05-08T05:58:45.160Z,100845.50
2023-05-08T06:03:47.945Z,100841.03
2023-05-08T06:08:50.357Z,100831.09
2023-05-08T06:13:52.554Z,100729.38
2023-05-08T06:18:54.845Z,100825.56
2023-05-08T06:23:57.141Z,100833.59
2023-05-08T06:28:59.387Z,100828.75
2023-05-08T06:34:01.649Z,100852.22
2023-05-08T06:39:07.887Z,100834.69
2023-05-08T06:44:10.259Z,100827.97
2023-05-08T06:49:12.457Z,100830.19
2023-05-08T06:54:14.668Z,100807.28
2023-05-08T06:59:17.024Z,100821.41
2023-05-08T07:04:19.624Z,100807.06
2023-05-08T07:09:22.070Z,100843.09
2023-05-08T07:14:24.242Z,100826.59
2023-05-08T07:19:26.597Z,100790.91
2023-05-08T07:24:28.890Z,100810.41
2023-05-08T07:29:31.257Z,100812.50
2023-05-08T07:34:35.336Z,100811.69
2023-05-08T07:39:37.717Z,100778.53
2023-05-08T07:44:53.215Z,100794.91
2023-05-08T07:49:56.544Z,100789.00
2023-05-08T07:54:59.162Z,100722.44
2023-05-08T08:00:06.466Z,100769.47
2023-05-08T08:05:09.555Z,100751.31
2023-05-08T08:10:12.106Z,100772.94
2023-05-08T08:15:14.889Z,100714.78
2023-05-08T08:20:17.538Z,100752.41
2023-05-08T08:25:19.849Z,100725.22
2023-05-08T08:30:22.228Z,100741.63
2023-05-08T08:35:29.819Z,100701.31
2023-05-08T08:40:32.196Z,100689.75
2023-05-08T08:45:34.594Z,100722.56
2023-05-08T08:50:40.902Z,100680.03
2023-05-08T08:55:47.193Z,100724.94
2023-05-08T09:00:50.596Z,100660.03
2023-05-08T09:05:54.402Z,100666.22
2023-05-08T09:10:56.830Z,100709.53
2023-05-08T09:16:00.127Z,100722.78
2023-05-08T09:21:03.035Z,100679.25
2023-05-08T09:26:05.425Z,100704.53
2023-05-08T09:31:07.747Z,100686.41
2023-05-08T09:36:29.032Z,100677.38
2023-05-08T09:41:31.621Z,100690.25
2023-05-08T09:46:34.792Z,100698.47
2023-05-08T09:51:38.530Z,100696.47
2023-05-08T09:56:41.630Z,100667.88
2023-05-08T10:01:44.591Z,100673.53
2023-05-08T10:06:58.128Z,100669.66
2023-05-08T10:12:00.795Z,100637.53
2023-05-08T10:17:10.677Z,100653.19
2023-05-08T10:22:17.408Z,100643.69
2023-05-08T10:27:31.034Z,100648.50
2023-05-08T10:32:41.051Z,100634.63
2023-05-08T10:37:48.516Z,100644.03
2023-05-08T10:42:58.756Z,100636.03
2023-05-08T10:48:22.226Z,100628.06
2023-05-08T10:53:45.013Z,100600.63
2023-05-08T10:58:56.539Z,100568.09
2023-05-08T11:03:59.152Z,100571.00
2023-05-08T11:09:01.484Z,100573.38
2023-05-08T11:14:09.733Z,100608.09
2023-05-08T11:19:20.063Z,100572.63
2023-05-08T11:24:36.363Z,100589.47
2023-05-08T11:29:39.349Z,100561.47
2023-05-08T11:34:44.575Z,100584.69
2023-05-08T11:39:50.690Z,100563.09
2023-05-08T11:45:08.252Z,100566.81
2023-05-08T11:50:16.616Z,100577.72
2023-05-08T11:55:20.544Z,100557.28
2023-05-08T12:00:23.223Z,100555.78
2023-05-08T12:05:28.778Z,100553.41
2023-05-08T12:10:31.026Z,100539.91
2023-05-08T12:15:33.916Z,100515.28
2023-05-08T12:20:36.195Z,100507.47
2023-05-08T12:25:39.673Z,100497.53
2023-05-08T12:30:42.616Z,100471.47
2023-05-08T12:35:45.356Z,100476.22
2023-05-08T12:40:53.502Z,100433.91
2023-05-08T12:45:55.567Z,100491.06
2023-05-08T12:51:07.826Z,100434.66
2023-05-08T12:56:10.174Z,100453.47
2023-05-08T13:01:17.084Z,100419.25
2023-05-08T13:06:24.052Z,100463.25
2023-05-08T13:11:34.712Z,100463.34
2023-05-08T13:16:48.098Z,100457.22
2023-05-08T13:21:50.625Z,100443.00
2023-05-08T13:26:52.939Z,100421.34
2023-05-08T13:31:55.320Z,100430.06
2023-05-08T13:36:58.122Z,100401.88
2023-05-08T13:42:00.758Z,100428.72
2023-05-08T13:47:03.197Z,100414.41
2023-05-08T13:52:05.836Z,100423.66
2023-05-08T13:57:08.670Z,100429.66
2023-05-08T14:02:11.296Z,100421.47
2023-05-08T14:07:13.902Z,100421.97
2023-05-08T14:12:16.379Z,100423.78
2023-05-08T14:17:18.602Z,100410.41
2023-05-08T14:22:20.839Z,100400.09
2023-05-08T14:27:23.292Z,100399.34
2023-05-08T14:32:28.765Z,100407.97
2023-05-08T14:37:34.286Z,100408.59
2023-05-08T14:42:36.965Z,100406.34
2023-05-08T14:47:40.003Z,100377.50
2023-05-08T14:52:42.323Z,100409.09
2023-05-08T14:57:44.506Z,100390.50
2023-05-08T15:02:47.025Z,100405.25
2023-05-08T15:07:51.237Z,100400.28
2023-05-08T15:12:53.579Z,100375.38
2023-05-08T15:17:56.040Z,100388.78
2023-05-08T15:22:58.307Z,100377.13
2023-05-08T15:28:01.105Z,100379.81
2023-05-08T15:33:03.725Z,100355.81
2023-05-08T15:38:07.905Z,100375.78
2023-05-08T15:43:10.232Z,100387.31
2023-05-08T15:48:13.026Z,100354.84
2023-05-08T15:53:15.430Z,100380.56
2023-05-08T15:58:18.209Z,100378.91
2023-05-08T16:03:20.838Z,100367.16
2023-05-08T16:08:23.510Z,100379.66
2023-05-08T16:13:25.770Z,100383.72
2023-05-08T16:18:28.049Z,100373.22
2023-05-08T16:23:30.308Z,100399.63
2023-05-08T16:28:32.574Z,100386.91
2023-05-08T16:33:34.756Z,100396.88
2023-05-08T16:38:37.028Z,100391.81
2023-05-08T16:43:39.403Z,100412.44
2023-05-08T16:48:42.668Z,100402.13
2023-05-08T16:53:44.898Z,100437.22
2023-05-08T16:58:47.556Z,100441.13
2023-05-08T17:03:49.852Z,100417.09
2023-05-08T17:08:52.108Z,100429.09
2023-05-08T17:13:54.286Z,100432.44
2023-05-08T17:18:56.585Z,100416.34
2023-05-08T17:24:02.163Z,100428.94
2023-05-08T17:29:04.396Z,100408.94
2023-05-08T17:34:06.625Z,100395.53
2023-05-08T17:39:08.930Z,100439.59
2023-05-08T17:44:11.301Z,100422.06
2023-05-08T17:49:15.869Z,100449.97
2023-05-08T17:54:19.506Z,100403.44
2023-05-08T17:59:21.779Z,100449.41
2023-05-08T18:04:24.817Z,100449.38
2023-05-08T18:09:27.045Z,100455.66
2023-05-08T18:14:32.920Z,100474.75
2023-05-08T18:19:35.124Z,100471.16
2023-05-08T18:24:37.341Z,100471.16
2023-05-08T18:29:40.822Z,100508.31
2023-05-08T18:34:43.036Z,100503.81
2023-05-08T18:39:45.219Z,100512.56
2023-05-08T18:44:47.482Z,100549.25
2023-05-08T18:49:52.831Z,100557.16
2023-05-08T18:54:55.059Z,100559.63
2023-05-08T18:59:57.238Z,100546.69
2023-05-08T19:04:59.510Z,100552.63
2023-05-08T19:10:01.788Z,100572.66
2023-05-08T19:15:04.200Z,100561.91
2023-05-08T19:20:07.385Z,100569.50
2023-05-08T19:25:10.328Z,100580.72
2023-05-08T19:30:13.021Z,100586.66
2023-05-08T19:35:15.352Z,100547.06
2023-05-08T19:40:17.743Z,100573.31
2023-05-08T19:45:20.036Z,100584.81
2023-05-08T19:50:22.578Z,100591.94
2023-05-08T19:55:24.855Z,100573.81
2023-05-08T20:00:27.034Z,100578.19
2023-05-08T20:05:29.445Z,100614.75
2023-05-08T20:10:31.670Z,100597.34
2023-05-08T20:15:34.028Z,100616.19
2023-05-08T20:20:36.341Z,100640.03
2023-05-08T20:25:38.644Z,100628.91
2023-05-08T20:30:40.917Z,100624.22
2023-05-08T20:35:43.338Z,100633.75
2023-05-08T20:40:45.680Z,100614.50
2023-05-08T20:45:49.609Z,100623.19
2023-05-08T20:50:51.970Z,100621.53
2023-05-08T20:56:01.154Z,100620.50
2023-05-08T21:01:04.579Z,100655.13
2023-05-08T21:06:07.326Z,100653.97
2023-05-08T21:11:09.625Z,100585.19
2023-05-08T21:16:12.416Z,100581.94
2023-05-08T21:21:16.244Z,100624.03
2023-05-08T21:26:20.318Z,100689.91
2023-05-08T21:31:23.000Z,100627.50
2023-05-08T21:36:25.350Z,100645.28
2023-05-08T21:41:29.147Z,100688.47
2023-05-08T21:46:31.493Z,100683.53
2023-05-08T21:51:33.898Z,100660.22
2023-05-08T21:56:36.108Z,100665.44
2023-05-08T22:01:38.382Z,100666.16
2023-05-08T22:06:40.667Z,100672.25
2023-05-08T22:11:43.006Z,100667.56
2023-05-08T22:16:45.337Z,100621.84
2023-05-08T22:21:47.692Z,100670.97
2023-05-08T22:26:49.967Z,100674.50
2023-05-08T22:31:52.537Z,100667.84
2023-05-08T22:36:54.765Z,100675.03
2023-05-08T22:41:57.275Z,100644.50
2023-05-08T22:46:59.642Z,100666.28
2023-05-08T22:52:02.025Z,100667.63
2023-05-08T22:57:04.384Z,100670.28
2023-05-08T23:02:06.561Z,100670.97
2023-05-08T23:07:08.785Z,100670.75
2023-05-08T23:12:11.086Z,100665.63
2023-05-08T23:17:14.372Z,100631.50
2023-05-08T23:22:16.625Z,100617.94
2023-05-08T23:27:18.826Z,100662.94
2023-05-08T23:32:21.209Z,100646.38
2023-05-08T23:37:23.406Z,100612.63
2023-05-08T23:42:25.669Z,100645.16
2023-05-08T23:47:27.931Z,100642.06
2023-05-08T23:52:30.247Z,100614.75
2023-05-08T23:57:32.479Z,100631.91
